Time;durP1;ratioP1;P1;durP2;ratioP2;P2;SDS_P1;SDS_P2;PMS_P1;PMS_P2;Temp;Humidity;BMP_temperature;BMP_pressure;BME280_temperature;BME280_humidity;BME280_pressure;Samples;Min_cycle;Max_cycle;Signal;HPM_P1;HPM_P2
2021/05/18 04:04:46;;;;;;;6.18;5.57;;;10.50;99.90;;;;;;4969033;28;20209;-70
2021/05/18 04:10:20;;;;;;;5.65;5.15;;;10.50;99.90;;;;;;4964493;28;20291;-71
2021/05/18 04:12:50;;;;;;;9.50;5.85;;;10.50;99.90;;;;;;4954942;29;20312;-71
2021/05/18 04:18:07;;;;;;;8.02;6.10;;;10.60;99.90;;;;;;4955126;29;20610;-71
2021/05/18 04:20:41;;;;;;;6.75;5.38;;;10.60;99.90;;;;;;4950535;29;20228;-71
2021/05/18 04:23:22;;;;;;;9.70;6.10;;;10.60;99.90;;;;;;4954502;29;20695;-72
2021/05/18 04:26:09;;;;;;;9.85;5.53;;;10.60;99.90;;;;;;4949761;28;20248;-74
2021/05/18 04:40:15;;;;;;;9.07;5.57;;;10.60;99.90;;;;;;4951469;29;20208;-74
2021/05/18 04:48:49;;;;;;;7.20;5.47;;;10.70;99.90;;;;;;4919956;29;20208;-74
2021/05/18 04:51:24;;;;;;;15.73;7.25;;;10.70;99.90;;;;;;4952342;28;20356;-74
2021/05/18 04:54:10;;;;;;;7.88;7.18;;;10.80;99.90;;;;;;4953756;29;20590;-74
2021/05/18 04:59:26;;;;;;;8.07;5.00;;;12.20;99.90;;;;;;4954324;29;20619;-75
2021/05/18 05:02:06;;;;;;;5.30;4.80;;;13.00;99.90;;;;;;4954347;28;20484;-73
2021/05/18 05:07:25;;;;;;;4.90;4.03;;;14.40;99.90;;;;;;4939043;29;20541;-74
2021/05/18 05:09:51;;;;;;;3.50;3.23;;;14.80;99.90;;;;;;4951162;29;20495;-74
2021/05/18 05:12:38;;;;;;;4.27;3.87;;;15.30;99.90;;;;;;4956909;28;20493;-72
2021/05/18 05:15:06;;;;;;;5.20;4.90;;;15.80;99.90;;;;;;4949540;29;20937;-72
2021/05/18 05:17:32;;;;;;;4.53;4.23;;;16.20;99.90;;;;;;4939999;29;20474;-72
2021/05/18 05:19:58;;;;;;;6.47;4.03;;;16.30;99.90;;;;;;4957747;29;20464;-71
2021/05/18 05:22:25;;;;;;;6.70;4.03;;;16.60;99.90;;;;;;4957244;29;20483;-71
2021/05/18 05:24:51;;;;;;;8.73;4.73;;;16.80;99.90;;;;;;4953868;29;20472;-72
2021/05/18 05:27:17;;;;;;;4.70;4.07;;;16.80;99.90;;;;;;4957251;29;20471;-71
2021/05/18 05:29:43;;;;;;;5.83;5.00;;;16.50;99.90;;;;;;4953916;29;20507;-72
2021/05/18 05:32:10;;;;;;;4.90;4.37;;;16.30;99.90;;;;;;4957421;29;20484;-72
2021/05/18 05:34:36;;;;;;;5.30;4.90;;;16.10;99.90;;;;;;4956811;29;20531;-71
2021/05/18 05:37:02;;;;;;;5.60;5.00;;;16.00;99.90;;;;;;4957498;29;20472;-71
2021/05/18 05:39:29;;;;;;;5.30;4.80;;;15.90;99.90;;;;;;4954261;29;20510;-70
2021/05/18 05:41:56;;;;;;;5.20;4.70;;;15.80;99.90;;;;;;4956021;29;20484;-71
2021/05/18 05:44:22;;;;;;;6.03;4.80;;;15.70;99.90;;;;;;4953868;29;20496;-72
2021/05/18 05:46:48;;;;;;;4.50;4.13;;;15.60;99.90;;;;;;4957524;28;20479;-72
2021/05/18 05:49:15;;;;;;;7.57;5.40;;;15.40;99.90;;;;;;4953979;28;20484;-71
2021/05/18 05:51:41;;;;;;;4.73;4.00;;;15.70;99.90;;;;;;4957459;29;20575;-70
2021/05/18 05:54:08;;;;;;;4.47;4.17;;;15.90;99.90;;;;;;4953773;28;20835;-70
2021/05/18 05:56:36;;;;;;;5.00;4.40;;;16.20;99.90;;;;;;4956490;29;20511;-70
2021/05/18 05:59:05;;;;;;;6.83;4.13;;;16.70;99.90;;;;;;4955537;29;20452;-71
2021/05/18 06:01:31;;;;;;;4.47;4.17;;;16.70;99.90;;;;;;4953772;29;20496;-70
2021/05/18 06:03:58;;;;;;;5.30;4.80;;;16.60;99.90;;;;;;4952625;28;20477;-71
2021/05/18 06:06:24;;;;;;;4.63;4.30;;;16.30;99.90;;;;;;4947544;28;20480;-70
2021/05/18 06:08:50;;;;;;;4.17;3.77;;;16.20;99.90;;;;;;4941829;29;20469;-71
2021/05/18 06:11:20;;;;;;;3.80;3.50;;;16.70;99.90;;;;;;4955702;29;20504;-71
2021/05/18 06:14:18;;;;;;;3.40;3.20;;;17.10;99.90;;;;;;4955885;28;20480;-72
2021/05/18 06:17:06;;;;;;;3.97;3.70;;;16.80;99.90;;;;;;4952316;28;20555;-72
2021/05/18 06:41:45;;;;;;;3.33;3.03;;;17.90;99.90;;;;;;4947474;28;20539;-71
2021/05/18 06:47:10;;;;;;;6.93;3.00;;;18.30;99.90;;;;;;4947788;29;20576;-72
2021/05/18 06:49:38;;;;;;;2.90;2.70;;;19.20;99.90;;;;;;4954794;29;20502;-72
2021/05/18 06:52:05;;;;;;;4.13;3.60;;;19.70;99.90;;;;;;4955632;28;20480;-72
2021/05/18 06:54:32;;;;;;;5.30;2.90;;;19.80;99.90;;;;;;4955925;28;20465;-72
2021/05/18 06:57:02;;;;;;;3.80;2.90;;;19.00;99.90;;;;;;4953966;29;20529;-72
2021/05/18 07:02:14;;;;;;;2.40;2.30;;;19.50;99.90;;;;;;4955161;29;20478;-70
2021/05/18 07:04:40;;;;;;;3.20;2.90;;;19.40;99.90;;;;;;4955426;28;20461;-71
2021/05/18 07:07:13;;;;;;;3.57;3.27;;;19.70;99.90;;;;;;4955494;29;20472;-71
2021/05/18 07:09:40;;;;;;;4.60;3.83;;;19.50;99.90;;;;;;4955161;29;20484;-72
2021/05/18 07:12:07;;;;;;;3.53;2.97;;;18.90;99.90;;;;;;4954347;28;20639;-71
2021/05/18 07:14:34;;;;;;;3.30;3.10;;;18.30;99.90;;;;;;4952919;28;20476;-71
2021/05/18 07:17:00;;;;;;;4.10;2.80;;;17.80;99.90;;;;;;4955311;29;20472;-71
2021/05/18 07:19:27;;;;;;;2.93;2.73;;;17.20;99.90;;;;;;4955343;28;20460;-71
2021/05/18 07:21:53;;;;;;;3.40;2.97;;;16.80;99.90;;;;;;4954621;29;20555;-71
2021/05/18 07:24:23;;;;;;;4.00;3.40;;;17.10;99.90;;;;;;4949034;28;20466;-72
2021/05/18 07:26:50;;;;;;;3.33;3.13;;;17.70;99.90;;;;;;4945891;29;20469;-71
2021/05/18 07:29:17;;;;;;;2.90;2.70;;;17.80;99.90;;;;;;4955744;28;20492;-73
2021/05/18 07:31:43;;;;;;;3.60;3.30;;;17.50;99.90;;;;;;4955444;28;20573;-71
2021/05/18 07:34:10;;;;;;;2.90;2.63;;;17.10;99.90;;;;;;4955507;28;20520;-71
2021/05/18 07:36:37;;;;;;;5.90;3.60;;;16.60;99.90;;;;;;4938651;29;20465;-71
2021/05/18 07:39:04;;;;;;;4.50;3.63;;;16.20;99.90;;;;;;4948193;29;20465;-71
2021/05/18 07:41:32;;;;;;;3.73;3.40;;;15.90;99.90;;;;;;4949991;28;20543;-71
2021/05/18 07:43:58;;;;;;;3.47;3.27;;;15.80;99.90;;;;;;4955104;29;20465;-71
2021/05/18 07:46:25;;;;;;;4.63;3.60;;;15.60;99.90;;;;;;4957256;29;20461;-71
2021/05/18 07:51:40;;;;;;;4.50;4.10;;;15.40;99.90;;;;;;4951216;28;20564;-72
2021/05/18 07:59:45;;;;;;;4.87;4.47;;;15.40;99.90;;;;;;4955799;29;20502;-72
2021/05/18 08:02:25;;;;;;;4.63;4.17;;;15.40;99.90;;;;;;4952876;28;20891;-73
2021/05/18 08:07:37;;;;;;;4.80;4.40;;;15.30;99.90;;;;;;4951833;29;20469;-71
2021/05/18 08:10:10;;;;;;;5.23;4.73;;;15.50;99.90;;;;;;4952224;29;20233;-72
2021/05/18 08:12:37;;;;;;;3.97;3.67;;;15.60;99.90;;;;;;4954103;29;20457;-71
2021/05/18 08:15:23;;;;;;;4.33;3.43;;;15.60;99.90;;;;;;4944696;29;20466;-71
2021/05/18 08:17:59;;;;;;;4.93;4.57;;;15.50;99.90;;;;;;4935905;29;20775;-71
2021/05/18 08:20:46;;;;;;;3.30;3.10;;;15.40;99.90;;;;;;4937748;29;20499;-72
2021/05/18 08:46:37;;;;;;;3.27;2.90;;;15.50;99.90;;;;;;4934693;28;20838;-71
2021/05/18 10:35:43;;;;;;;2.10;2.00;;;16.10;99.90;;;;;;4953003;29;20471;-75
2021/05/18 10:38:12;;;;;;;1.77;1.67;;;16.40;99.90;;;;;;4955268;29;20460;-73
2021/05/18 10:40:40;;;;;;;2.50;2.30;;;16.60;99.90;;;;;;4946987;29;20512;-73
2021/05/18 10:43:08;;;;;;;2.10;2.00;;;16.70;99.90;;;;;;4953689;29;20472;-72
2021/05/18 10:46:02;;;;;;;2.60;2.60;;;16.40;99.90;;;;;;4953778;29;21090;-74
2021/05/18 10:49:06;;;;;;;3.67;3.47;;;16.20;99.90;;;;;;4944517;29;20570;-73
2021/05/18 10:51:36;;;;;;;3.00;2.77;;;16.00;99.90;;;;;;4954194;28;20495;-73
2021/05/18 10:54:37;;;;;;;2.83;2.67;;;15.90;99.90;;;;;;4948891;29;20528;-74
2021/05/18 10:57:11;;;;;;;3.00;2.90;;;15.90;99.90;;;;;;4946944;28;20491;-74
2021/05/18 10:59:39;;;;;;;3.10;3.00;;;15.90;99.90;;;;;;4953637;28;20499;-73
2021/05/18 11:02:09;;;;;;;3.80;3.50;;;15.90;99.90;;;;;;4953346;29;20989;-72
2021/05/18 11:04:36;;;;;;;3.70;3.23;;;16.00;99.90;;;;;;4950931;29;20472;-72
2021/05/18 11:07:05;;;;;;;3.40;3.30;;;16.20;99.90;;;;;;4955122;29;21020;-72
2021/05/18 11:09:32;;;;;;;2.87;2.80;;;16.30;99.90;;;;;;4954591;28;20591;-72
2021/05/18 11:12:02;;;;;;;3.70;3.50;;;16.40;99.90;;;;;;4945978;29;21086;-73
2021/05/18 11:14:38;;;;;;;2.93;2.83;;;16.50;99.90;;;;;;4955093;28;20485;-71
2021/05/18 11:17:15;;;;;;;3.13;3.03;;;16.50;99.90;;;;;;4954247;29;20477;-74
2021/05/18 11:19:58;;;;;;;3.33;3.23;;;16.50;99.90;;;;;;4954073;28;20902;-72
2021/05/18 11:25:10;;;;;;;3.17;3.07;;;16.50;99.90;;;;;;4953356;29;20460;-74
2021/05/18 11:27:38;;;;;;;3.20;3.00;;;16.50;99.90;;;;;;4952735;29;20464;-73
2021/05/18 11:30:07;;;;;;;3.70;3.60;;;16.40;99.90;;;;;;4960634;29;20488;-72
2021/05/18 11:32:36;;;;;;;3.80;3.60;;;16.40;99.90;;;;;;4964629;28;20465;-72
2021/05/18 11:35:06;;;;;;;3.40;3.20;;;16.40;99.90;;;;;;4969343;29;20464;-72
2021/05/18 11:37:33;;;;;;;2.97;2.87;;;16.40;99.90;;;;;;4954798;29;20801;-71
2021/05/18 11:40:14;;;;;;;2.83;2.63;;;16.40;99.90;;;;;;4937262;29;20549;-72
2021/05/18 11:42:41;;;;;;;2.30;2.30;;;16.40;99.90;;;;;;4952845;29;20586;-72
2021/05/18 11:45:14;;;;;;;3.43;3.33;;;16.50;99.90;;;;;;4954012;29;20929;-73
2021/05/18 11:47:42;;;;;;;3.00;2.70;;;16.60;99.90;;;;;;4952728;28;20469;-72
2021/05/18 11:50:23;;;;;;;3.00;2.90;;;16.70;99.90;;;;;;4953226;29;20588;-73
2021/05/18 11:52:50;;;;;;;2.83;2.80;;;16.80;99.90;;;;;;4953294;29;20511;-73
2021/05/18 11:55:26;;;;;;;2.80;2.70;;;16.90;99.90;;;;;;4951890;29;20461;-73
2021/05/18 11:57:53;;;;;;;2.10;2.00;;;17.00;99.90;;;;;;4954109;29;20468;-73
2021/05/18 12:00:26;;;;;;;3.00;2.90;;;17.10;99.90;;;;;;4954252;29;20471;-73
2021/05/18 12:03:00;;;;;;;2.70;2.60;;;17.20;99.90;;;;;;4951194;28;20485;-73
2021/05/18 12:05:26;;;;;;;2.40;2.40;;;17.20;99.90;;;;;;4953220;29;20583;-73
2021/05/18 12:07:53;;;;;;;2.60;2.40;;;17.30;99.90;;;;;;4952933;29;20479;-73
2021/05/18 12:10:43;;;;;;;2.33;2.30;;;17.40;99.90;;;;;;4950310;29;20485;-73
2021/05/18 12:13:27;;;;;;;2.00;2.00;;;17.60;99.90;;;;;;4938485;28;20468;-73
2021/05/18 12:16:05;;;;;;;2.60;2.50;;;17.70;99.90;;;;;;4948165;29;20810;-73
2021/05/18 12:18:32;;;;;;;2.87;2.77;;;17.70;99.90;;;;;;4952289;28;20468;-73
2021/05/18 12:21:04;;;;;;;2.70;2.60;;;17.60;99.90;;;;;;4951587;28;20484;-75
2021/05/18 12:23:37;;;;;;;1.97;1.97;;;17.50;99.90;;;;;;4953497;28;20500;-75
2021/05/18 12:26:15;;;;;;;2.30;2.30;;;17.50;99.90;;;;;;4953211;28;20469;-76
2021/05/18 12:28:56;;;;;;;2.60;2.57;;;17.50;99.90;;;;;;4949816;29;20486;-75
2021/05/18 12:31:28;;;;;;;2.00;2.00;;;17.40;99.90;;;;;;4952322;29;20583;-75
2021/05/18 12:33:55;;;;;;;2.70;2.60;;;17.50;99.90;;;;;;4950347;29;20472;-75
2021/05/18 12:36:21;;;;;;;2.67;2.57;;;17.60;99.90;;;;;;4952534;29;20484;-74
2021/05/18 12:39:08;;;;;;;3.37;3.17;;;17.60;99.90;;;;;;4953129;28;20472;-76
2021/05/18 12:41:56;;;;;;;3.77;3.57;;;17.60;99.90;;;;;;4950712;28;20496;-75
2021/05/18 12:44:24;;;;;;;3.43;3.17;;;17.50;99.90;;;;;;4952461;29;20468;-74
2021/05/18 12:47:04;;;;;;;3.53;3.40;;;17.30;99.90;;;;;;4951285;29;20464;-74
2021/05/18 12:49:33;;;;;;;3.07;3.00;;;17.20;99.90;;;;;;4951713;29;20488;-74
2021/05/18 12:52:11;;;;;;;3.40;3.20;;;17.20;99.90;;;;;;4952369;29;20491;-74
2021/05/18 12:54:44;;;;;;;3.77;3.47;;;17.20;99.90;;;;;;4952489;29;20464;-72
2021/05/18 12:57:12;;;;;;;3.37;3.17;;;17.30;99.90;;;;;;4938978;29;20466;-73
2021/05/18 12:59:56;;;;;;;3.60;3.47;;;17.40;99.90;;;;;;4952379;29;20468;-72
2021/05/18 13:02:35;;;;;;;4.13;4.03;;;17.60;99.90;;;;;;4948101;28;20820;-75
2021/05/18 13:05:09;;;;;;;3.57;3.37;;;17.50;99.90;;;;;;4952658;29;20495;-74
2021/05/18 13:07:35;;;;;;;3.40;3.30;;;17.50;99.90;;;;;;4952584;28;20488;-75
2021/05/18 13:10:11;;;;;;;4.53;4.23;;;17.60;99.90;;;;;;4952817;29;20492;-75
2021/05/18 13:12:37;;;;;;;3.47;3.37;;;17.60;99.90;;;;;;4951842;29;20500;-73
2021/05/18 13:15:06;;;;;;;3.33;3.23;;;17.60;99.90;;;;;;4953130;29;20465;-73
2021/05/18 13:17:33;;;;;;;3.83;3.63;;;17.60;99.90;;;;;;4953486;28;20571;-73
2021/05/18 13:20:01;;;;;;;3.40;3.30;;;17.50;99.90;;;;;;4952357;29;20519;-73
2021/05/18 13:22:29;;;;;;;2.83;2.80;;;17.50;99.90;;;;;;4952156;28;21019;-73
2021/05/18 13:27:54;;;;;;;4.47;4.20;;;17.80;99.90;;;;;;4957338;29;20522;-73
2021/05/18 13:30:22;;;;;;;4.40;4.23;;;17.80;99.90;;;;;;4951808;29;20491;-73
2021/05/18 13:32:49;;;;;;;3.10;3.00;;;17.80;99.90;;;;;;4955559;29;20550;-72
2021/05/18 13:35:17;;;;;;;3.47;3.27;;;17.60;99.90;;;;;;4956801;28;20491;-73
2021/05/18 13:37:44;;;;;;;3.10;3.00;;;17.50;99.90;;;;;;4956284;29;20461;-73
2021/05/18 13:40:11;;;;;;;3.50;3.40;;;17.40;99.90;;;;;;4955683;28;20464;-74
2021/05/18 13:42:37;;;;;;;4.07;3.77;;;17.40;99.90;;;;;;4955050;28;20476;-74
2021/05/18 13:45:04;;;;;;;3.20;3.10;;;17.40;99.90;;;;;;4955170;28;20832;-71
2021/05/18 13:47:30;;;;;;;4.23;4.03;;;17.40;99.90;;;;;;4947698;28;21137;-71
2021/05/18 13:49:57;;;;;;;3.87;3.60;;;18.10;99.90;;;;;;4949221;29;20819;-71
2021/05/18 13:52:25;;;;;;;3.67;3.57;;;17.50;99.90;;;;;;4943679;28;20493;-71
2021/05/18 13:54:53;;;;;;;3.57;3.37;;;17.60;99.90;;;;;;4952339;28;20547;-70
2021/05/18 13:57:20;;;;;;;3.37;3.20;;;17.60;99.90;;;;;;4954886;28;20594;-72
2021/05/18 13:59:48;;;;;;;3.67;3.50;;;17.50;99.90;;;;;;4955325;28;20473;-70
2021/05/18 14:02:15;;;;;;;3.43;3.33;;;17.40;99.90;;;;;;4955832;29;20504;-71
2021/05/18 14:04:41;;;;;;;3.10;3.10;;;17.40;99.90;;;;;;4956332;29;20527;-71
2021/05/18 14:07:50;;;;;;;2.87;2.87;;;17.30;99.90;;;;;;4955514;28;20487;-72
2021/05/18 14:10:17;;;;;;;2.73;2.73;;;17.30;99.90;;;;;;4934809;29;20490;-72
2021/05/18 14:12:43;;;;;;;3.00;2.80;;;17.10;99.90;;;;;;4936769;29;20583;-70
2021/05/18 14:15:11;;;;;;;2.70;2.70;;;17.10;99.90;;;;;;4936812;29;20521;-72
2021/05/18 14:17:37;;;;;;;2.83;2.63;;;17.00;99.90;;;;;;4937321;29;20465;-74
2021/05/18 14:20:05;;;;;;;2.90;2.80;;;16.90;99.90;;;;;;4936707;29;20508;-73
2021/05/18 14:22:32;;;;;;;2.63;2.57;;;16.90;99.90;;;;;;4950234;28;20488;-72
2021/05/18 14:25:04;;;;;;;3.70;3.60;;;16.80;99.90;;;;;;4950778;29;20913;-70
2021/05/18 14:27:31;;;;;;;3.30;3.20;;;16.80;99.90;;;;;;4954495;29;20512;-72
2021/05/18 14:29:57;;;;;;;2.83;2.80;;;16.70;99.90;;;;;;4954790;29;20515;-72
2021/05/18 14:32:23;;;;;;;2.50;2.40;;;16.60;99.90;;;;;;4955048;29;20489;-72
2021/05/18 14:34:49;;;;;;;2.77;2.67;;;16.50;99.90;;;;;;4953729;28;20472;-71
2021/05/18 14:37:17;;;;;;;3.23;3.13;;;16.40;99.90;;;;;;4954932;29;20555;-72
2021/05/18 14:39:55;;;;;;;4.00;3.33;;;16.30;99.90;;;;;;4949415;29;21284;-72
2021/05/18 14:45:07;;;;;;;2.93;2.83;;;16.00;99.90;;;;;;4953531;29;20600;-72
2021/05/18 14:47:39;;;;;;;2.60;2.53;;;16.00;99.90;;;;;;4954227;29;20469;-71
2021/05/18 14:55:35;;;;;;;2.23;2.17;;;16.30;99.90;;;;;;4952544;29;20881;-73
2021/05/18 14:58:02;;;;;;;2.27;2.27;;;16.50;99.90;;;;;;4948208;28;20496;-72
2021/05/18 15:00:28;;;;;;;3.40;3.20;;;16.60;99.90;;;;;;4953422;28;20484;-74
2021/05/18 15:02:55;;;;;;;3.03;2.80;;;16.60;99.90;;;;;;4953452;28;20976;-74
2021/05/18 15:05:22;;;;;;;2.53;2.50;;;16.50;99.90;;;;;;4950302;28;20477;-75
2021/05/18 15:07:49;;;;;;;3.07;2.97;;;16.40;99.90;;;;;;4953796;28;20468;-75
2021/05/18 15:10:16;;;;;;;3.17;3.07;;;16.30;99.90;;;;;;4951066;29;20492;-75
2021/05/18 15:12:43;;;;;;;2.67;2.57;;;16.20;99.90;;;;;;4952810;28;20596;-74
2021/05/18 15:15:11;;;;;;;2.90;2.80;;;16.20;99.90;;;;;;4954077;28;20816;-74
2021/05/18 15:17:37;;;;;;;2.23;2.23;;;16.20;99.90;;;;;;4954020;28;20500;-74
2021/05/18 15:20:05;;;;;;;2.93;2.83;;;16.20;99.90;;;;;;4951296;29;20786;-73
2021/05/18 15:22:31;;;;;;;2.70;2.60;;;16.30;99.90;;;;;;4949973;28;20511;-74
2021/05/18 15:24:58;;;;;;;3.70;3.50;;;16.30;99.90;;;;;;4951742;29;20467;-74
2021/05/18 15:27:26;;;;;;;2.77;2.67;;;16.40;99.90;;;;;;4952991;28;20491;-74
2021/05/18 15:29:53;;;;;;;2.43;2.43;;;16.50;99.90;;;;;;4953619;28;20500;-74
2021/05/18 15:32:20;;;;;;;3.10;3.00;;;16.70;99.90;;;;;;4952629;28;21000;-74
2021/05/18 15:34:46;;;;;;;2.67;2.53;;;16.70;99.90;;;;;;4948616;29;20469;-74
2021/05/18 15:37:12;;;;;;;2.50;2.40;;;16.80;99.90;;;;;;4953666;28;20478;-74
2021/05/18 15:39:39;;;;;;;2.20;2.20;;;16.90;99.90;;;;;;4953378;28;20472;-74
2021/05/18 15:42:05;;;;;;;1.90;1.90;;;16.90;99.90;;;;;;4952402;29;20543;-73
2021/05/18 15:44:31;;;;;;;2.60;2.50;;;17.00;99.90;;;;;;4953291;29;20844;-75
2021/05/18 15:47:00;;;;;;;3.30;3.20;;;16.90;99.90;;;;;;4952953;28;20472;-75
2021/05/18 15:49:28;;;;;;;2.63;2.43;;;16.70;99.90;;;;;;4951927;28;21064;-71
2021/05/18 15:51:55;;;;;;;2.20;2.20;;;16.70;99.90;;;;;;4952420;29;20489;-73
2021/05/18 15:54:21;;;;;;;1.97;1.97;;;16.70;99.90;;;;;;4952073;29;20472;-74
2021/05/18 15:56:47;;;;;;;2.07;2.07;;;16.60;99.90;;;;;;4952373;28;20968;-71
2021/05/18 15:59:14;;;;;;;1.80;1.80;;;16.60;99.90;;;;;;4951749;28;20472;-71
2021/05/18 16:01:41;;;;;;;2.10;1.97;;;16.60;99.90;;;;;;4952752;28;20503;-71
2021/05/18 16:04:09;;;;;;;1.63;1.63;;;16.60;99.90;;;;;;4952109;28;20468;-71
2021/05/18 16:06:39;;;;;;;2.70;2.60;;;16.70;99.90;;;;;;4952977;28;20472;-71
2021/05/18 16:09:05;;;;;;;2.07;1.87;;;16.70;99.90;;;;;;4952103;28;20476;-72
2021/05/18 16:11:31;;;;;;;1.60;1.60;;;16.80;99.90;;;;;;4951359;28;20555;-72
2021/05/18 16:13:58;;;;;;;1.70;1.70;;;16.90;99.90;;;;;;4951893;29;20466;-72
2021/05/18 16:16:24;;;;;;;2.30;1.53;;;16.90;99.90;;;;;;4940159;28;20480;-72
2021/05/18 16:18:51;;;;;;;1.60;1.60;;;17.00;99.90;;;;;;4942267;29;20571;-72
2021/05/18 16:21:19;;;;;;;1.50;1.50;;;17.10;99.90;;;;;;4948576;29;20489;-71
2021/05/18 16:23:47;;;;;;;1.40;1.40;;;17.00;99.90;;;;;;4952548;29;20523;-73
2021/05/18 16:26:15;;;;;;;1.53;1.53;;;16.90;99.90;;;;;;4941883;29;20532;-73
2021/05/18 16:28:42;;;;;;;2.70;2.70;;;16.80;99.90;;;;;;4942489;29;20523;-73
2021/05/18 16:31:08;;;;;;;1.53;1.50;;;16.70;99.90;;;;;;4952585;29;21008;-73
2021/05/18 16:33:35;;;;;;;1.67;1.57;;;16.50;99.90;;;;;;4950913;28;20539;-73
2021/05/18 16:36:02;;;;;;;1.30;1.30;;;16.50;99.90;;;;;;4949197;28;20540;-72
2021/05/18 16:38:29;;;;;;;1.33;1.33;;;16.50;99.90;;;;;;4952167;28;20468;-73
2021/05/18 16:40:57;;;;;;;1.73;1.63;;;16.60;99.90;;;;;;4951013;28;20488;-73
2021/05/18 16:43:25;;;;;;;1.10;1.10;;;16.60;99.90;;;;;;4951160;28;20571;-72
2021/05/18 16:45:52;;;;;;;1.10;1.10;;;16.60;99.90;;;;;;4952087;28;20471;-73
2021/05/18 16:48:18;;;;;;;0.90;0.90;;;16.60;99.90;;;;;;4946651;28;20550;-73
2021/05/18 16:50:44;;;;;;;1.20;1.20;;;16.50;99.90;;;;;;4943474;28;20489;-74
2021/05/18 16:53:11;;;;;;;1.30;1.30;;;16.40;99.90;;;;;;4945647;28;20473;-72
2021/05/18 16:55:38;;;;;;;1.13;1.10;;;16.30;99.90;;;;;;4948869;29;20555;-73
2021/05/18 16:58:04;;;;;;;1.17;1.17;;;16.30;99.90;;;;;;4950014;28;20841;-74
2021/05/18 17:00:31;;;;;;;1.23;1.23;;;16.20;99.90;;;;;;4952175;29;20827;-74
2021/05/18 17:02:58;;;;;;;1.33;1.23;;;16.10;99.90;;;;;;4955285;29;20456;-73
2021/05/18 17:05:27;;;;;;;1.00;1.00;;;16.00;99.90;;;;;;4950273;29;20461;-74
2021/05/18 17:07:54;;;;;;;1.00;1.00;;;16.00;99.90;;;;;;4952424;29;20953;-72
2021/05/18 17:10:22;;;;;;;1.50;1.40;;;15.80;99.90;;;;;;4952523;29;20499;-74
2021/05/18 17:12:50;;;;;;;1.40;1.40;;;15.50;99.90;;;;;;4955167;28;20471;-72
2021/05/18 17:15:16;;;;;;;1.30;1.30;;;15.30;99.90;;;;;;4952234;29;20475;-73
2021/05/18 17:17:43;;;;;;;1.63;1.53;;;15.00;99.90;;;;;;4952226;29;20472;-74
2021/05/18 17:20:12;;;;;;;1.73;1.63;;;14.90;99.90;;;;;;4944843;29;20477;-73
2021/05/18 17:22:38;;;;;;;1.70;1.70;;;14.80;99.90;;;;;;4952106;29;20484;-73
2021/05/18 17:25:06;;;;;;;2.40;1.65;;;14.80;99.90;;;;;;4952361;28;20475;-73
2021/05/18 17:27:32;;;;;;;1.97;1.97;;;14.60;99.90;;;;;;4952368;29;20568;-72
2021/05/18 17:29:59;;;;;;;1.37;1.37;;;14.50;99.90;;;;;;4953137;28;20527;-72
2021/05/18 17:32:25;;;;;;;1.53;1.53;;;14.40;99.90;;;;;;4952569;28;20504;-72
2021/05/18 17:34:51;;;;;;;2.17;2.07;;;14.30;99.90;;;;;;4952700;29;20534;-75
2021/05/18 17:37:18;;;;;;;2.03;2.03;;;14.30;99.90;;;;;;4952791;29;20465;-74
2021/05/18 17:39:44;;;;;;;1.85;1.85;;;14.20;99.90;;;;;;4952449;28;20465;-74
2021/05/18 17:42:10;;;;;;;1.70;1.70;;;14.20;99.90;;;;;;4950785;28;20224;-75
2021/05/18 17:44:37;;;;;;;1.87;1.87;;;14.10;99.90;;;;;;4952440;28;20662;-75
2021/05/18 17:47:04;;;;;;;1.40;1.40;;;14.20;99.90;;;;;;4952054;29;20968;-72
2021/05/18 17:49:33;;;;;;;1.30;1.30;;;14.10;99.90;;;;;;4947192;28;20213;-72
2021/05/18 17:52:00;;;;;;;2.00;2.00;;;14.10;99.90;;;;;;4952240;29;20499;-72
2021/05/18 17:54:27;;;;;;;2.03;2.03;;;14.10;99.90;;;;;;4951586;28;20241;-73
2021/05/18 17:56:53;;;;;;;1.55;1.55;;;14.00;99.90;;;;;;4951846;29;20205;-72
2021/05/18 17:59:19;;;;;;;1.65;1.65;;;13.90;99.90;;;;;;4951549;29;20216;-72
2021/05/18 18:01:46;;;;;;;2.22;2.15;;;13.90;99.90;;;;;;4951265;28;20248;-72
2021/05/18 18:04:13;;;;;;;2.27;2.17;;;13.90;99.90;;;;;;4951313;28;20221;-73
2021/05/18 18:06:39;;;;;;;1.90;1.90;;;13.80;99.90;;;;;;4951721;28;20491;-73
2021/05/18 18:09:05;;;;;;;2.47;2.38;;;13.80;99.90;;;;;;4953087;28;20217;-72
2021/05/18 18:11:31;;;;;;;1.95;1.90;;;13.80;99.90;;;;;;4954532;28;20296;-73
2021/05/18 18:13:58;;;;;;;1.92;1.92;;;13.80;99.90;;;;;;4956557;28;20343;-72
2021/05/18 18:16:24;;;;;;;2.17;2.15;;;13.70;99.90;;;;;;4955904;29;20285;-72
2021/05/18 18:18:50;;;;;;;1.77;1.67;;;13.70;99.90;;;;;;4954871;28;20654;-72
2021/05/18 18:21:18;;;;;;;1.92;1.92;;;13.70;99.90;;;;;;4957257;29;20221;-72
2021/05/18 18:23:44;;;;;;;1.80;1.80;;;13.60;99.90;;;;;;4958872;29;20259;-73
2021/05/18 18:26:12;;;;;;;1.95;1.95;;;13.50;99.90;;;;;;4958440;28;20253;-73
2021/05/18 18:28:39;;;;;;;1.92;1.90;;;13.50;99.90;;;;;;4958624;29;20849;-74
2021/05/18 18:31:06;;;;;;;1.83;1.83;;;13.40;99.90;;;;;;4955149;28;20240;-75
2021/05/18 18:33:33;;;;;;;2.25;2.15;;;13.40;99.90;;;;;;4954991;29;20217;-74
2021/05/18 18:35:59;;;;;;;2.17;2.17;;;13.40;99.90;;;;;;4955089;28;20264;-73
2021/05/18 18:38:26;;;;;;;2.90;2.80;;;13.30;99.90;;;;;;4955476;28;20220;-75
2021/05/18 18:40:52;;;;;;;2.03;2.00;;;13.20;99.90;;;;;;4955299;29;20233;-74
2021/05/18 18:43:19;;;;;;;2.05;1.95;;;13.20;99.90;;;;;;4954558;29;20522;-74
2021/05/18 18:45:45;;;;;;;2.63;2.53;;;13.20;99.90;;;;;;4954549;29;20220;-74
2021/05/18 18:48:15;;;;;;;2.67;2.47;;;13.10;99.90;;;;;;4950414;29;20639;-74
2021/05/18 18:50:46;;;;;;;3.63;2.65;;;13.10;99.90;;;;;;4953994;29;20735;-73
2021/05/18 18:53:19;;;;;;;3.55;3.45;;;13.00;99.90;;;;;;4953818;29;20213;-74
2021/05/18 18:55:46;;;;;;;3.58;3.47;;;12.90;99.90;;;;;;4953732;29;20221;-72
2021/05/18 18:58:15;;;;;;;3.33;2.90;;;12.90;99.90;;;;;;4952060;29;20224;-72
2021/05/18 19:00:41;;;;;;;3.25;3.15;;;12.90;99.90;;;;;;4953840;28;20237;-72
2021/05/18 19:03:10;;;;;;;2.85;2.75;;;12.90;99.90;;;;;;4954190;29;20770;-72
2021/05/18 19:05:44;;;;;;;2.55;2.45;;;12.80;99.90;;;;;;4954617;28;20601;-72
2021/05/18 19:08:44;;;;;;;2.40;2.35;;;12.80;99.90;;;;;;4954720;29;20238;-72
2021/05/18 19:11:31;;;;;;;2.55;2.40;;;12.80;99.90;;;;;;4953612;29;20241;-72
2021/05/18 19:13:58;;;;;;;1.73;1.73;;;12.70;99.90;;;;;;4953907;28;20208;-73
2021/05/18 19:16:24;;;;;;;2.42;2.35;;;12.70;99.90;;;;;;4954256;29;20217;-72
2021/05/18 19:18:51;;;;;;;2.00;2.00;;;12.70;99.90;;;;;;4953506;28;20209;-72
2021/05/18 19:21:17;;;;;;;2.53;2.45;;;12.60;99.90;;;;;;4951753;28;20240;-72
2021/05/18 19:23:43;;;;;;;1.88;1.88;;;12.60;99.90;;;;;;4953138;29;20209;-72
2021/05/18 19:26:11;;;;;;;1.88;1.88;;;12.60;99.90;;;;;;4954712;29;20307;-71
2021/05/18 19:28:41;;;;;;;2.42;2.33;;;12.60;99.90;;;;;;4954511;28;20221;-72
2021/05/18 19:31:07;;;;;;;2.53;2.47;;;12.60;99.90;;;;;;4943120;29;20320;-72
2021/05/18 19:33:34;;;;;;;2.92;2.72;;;12.50;99.90;;;;;;4958915;29;20205;-73
2021/05/18 19:36:29;;;;;;;2.97;2.88;;;12.50;99.90;;;;;;4965973;29;20289;-74
2021/05/18 19:41:49;;;;;;;2.00;1.90;;;12.40;99.90;;;;;;4960670;29;20614;-75
2021/05/18 19:44:30;;;;;;;2.13;2.13;;;12.30;99.90;;;;;;4968576;29;20284;-73
2021/05/18 19:49:45;;;;;;;2.22;2.20;;;12.30;99.90;;;;;;4950336;29;20302;-74
2021/05/18 19:52:12;;;;;;;3.03;2.88;;;12.20;99.90;;;;;;4948258;29;20315;-75
2021/05/18 19:54:39;;;;;;;2.20;2.20;;;12.20;99.90;;;;;;4954324;28;20240;-73
2021/05/18 19:57:08;;;;;;;2.53;2.42;;;12.10;99.90;;;;;;4949878;29;20209;-75
2021/05/18 20:10:58;;;;;;;6.35;5.75;;;12.00;99.90;;;;;;4949068;29;20268;-76
2021/05/18 20:16:27;;;;;;;4.65;4.45;;;11.90;99.90;;;;;;4953657;29;20311;-75
2021/05/18 20:21:40;;;;;;;4.63;4.22;;;11.80;99.90;;;;;;4954027;29;20311;-75
2021/05/18 20:24:07;;;;;;;5.13;3.95;;;11.80;99.90;;;;;;4950164;29;20688;-75
2021/05/18 20:26:37;;;;;;;4.57;4.32;;;11.70;99.90;;;;;;4953376;29;20208;-75
2021/05/18 20:29:03;;;;;;;4.78;4.43;;;11.70;99.90;;;;;;4949909;28;20216;-76
2021/05/18 20:31:33;;;;;;;3.95;3.65;;;11.60;99.90;;;;;;4952233;28;20233;-75
2021/05/18 20:34:04;;;;;;;4.18;3.97;;;11.60;99.90;;;;;;4953200;29;20770;-75
2021/05/18 20:39:17;;;;;;;4.47;4.28;;;11.50;99.90;;;;;;4953396;29;20211;-77
2021/05/18 20:41:46;;;;;;;4.38;4.28;;;11.40;99.90;;;;;;4949969;29;20217;-76
2021/05/18 20:44:13;;;;;;;3.75;3.65;;;11.40;99.90;;;;;;4952494;28;20682;-76
2021/05/18 20:46:41;;;;;;;4.00;3.90;;;11.30;99.90;;;;;;4951541;28;20578;-74
2021/05/18 20:49:07;;;;;;;4.25;4.05;;;11.30;99.90;;;;;;4952942;29;20209;-74
2021/05/18 20:51:35;;;;;;;3.80;3.70;;;11.20;99.90;;;;;;4950865;29;20233;-73
2021/05/18 20:54:02;;;;;;;4.72;4.43;;;11.20;99.90;;;;;;4952704;29;20608;-74
2021/05/18 20:56:29;;;;;;;4.30;3.97;;;11.20;99.90;;;;;;4951884;28;20217;-74
2021/05/18 20:58:55;;;;;;;4.10;3.90;;;11.10;99.90;;;;;;4952491;29;20209;-74
